Time;durP1;ratioP1;P1;durP2;ratioP2;P2;SDS_P1;SDS_P2;PMS_P1;PMS_P2;Temp;Humidity;BMP_temperature;BMP_pressure;BME280_temperature;BME280_humidity;BME280_pressure;Samples;Min_cycle;Max_cycle;Signal;HPM_P1;HPM_P2
2021/06/19 00:00:19;;;;;;;3.10;2.50;;;26.40;57.70;;;;;;5116808;28;20466;-87
2021/06/19 00:02:46;;;;;;;2.30;2.07;;;26.50;57.30;;;;;;5116984;28;20478;-87
2021/06/19 00:05:14;;;;;;;8.37;2.53;;;26.60;57.20;;;;;;5116296;28;20456;-87
2021/06/19 00:07:42;;;;;;;5.20;2.33;;;26.70;56.80;;;;;;5116429;28;20461;-87
2021/06/19 00:10:12;;;;;;;2.70;2.43;;;26.80;56.60;;;;;;5116661;28;20979;-86
2021/06/19 00:12:39;;;;;;;3.90;2.60;;;26.80;56.40;;;;;;5117323;28;20456;-86
2021/06/19 00:15:08;;;;;;;4.13;2.87;;;26.90;56.60;;;;;;5116650;28;20435;-86
2021/06/19 00:17:35;;;;;;;10.73;3.00;;;27.00;56.60;;;;;;5116284;28;20486;-86
2021/06/19 00:20:02;;;;;;;8.57;3.37;;;27.00;56.40;;;;;;5116353;28;20471;-86
2021/06/19 00:22:28;;;;;;;11.70;3.43;;;27.00;56.50;;;;;;5116370;28;20454;-86
2021/06/19 00:24:55;;;;;;;11.10;3.23;;;27.00;56.60;;;;;;5116691;28;20438;-87
2021/06/19 00:27:23;;;;;;;12.43;3.77;;;27.00;56.60;;;;;;5116434;28;20807;-87
2021/06/19 00:29:50;;;;;;;8.03;3.23;;;27.00;56.60;;;;;;5116505;28;20525;-87
2021/06/19 00:32:17;;;;;;;10.53;3.80;;;27.00;56.70;;;;;;5116317;28;20450;-87
2021/06/19 00:34:44;;;;;;;8.20;2.93;;;27.00;56.70;;;;;;5116377;28;20457;-87
2021/06/19 00:37:12;;;;;;;5.40;2.63;;;26.90;56.50;;;;;;5116897;28;20475;-87
2021/06/19 00:39:38;;;;;;;7.47;3.13;;;26.80;56.50;;;;;;5116244;28;20471;-88
2021/06/19 00:42:06;;;;;;;4.30;2.83;;;26.80;56.30;;;;;;5115712;28;20454;-88
2021/06/19 00:44:34;;;;;;;15.10;2.60;;;26.70;56.40;;;;;;5116034;28;20431;-88
2021/06/19 00:47:01;;;;;;;5.43;2.60;;;26.70;56.00;;;;;;5115676;28;20443;-88
2021/06/19 00:49:28;;;;;;;3.90;2.20;;;26.70;55.60;;;;;;5116186;28;20467;-88
2021/06/19 00:51:55;;;;;;;2.07;1.53;;;26.60;55.70;;;;;;5117937;28;20820;-88
2021/06/19 00:54:22;;;;;;;2.87;1.77;;;26.50;55.00;;;;;;5130281;28;20442;-88
2021/06/19 00:56:49;;;;;;;3.27;1.63;;;26.30;54.80;;;;;;5133049;28;20433;-87
2021/06/19 00:59:17;;;;;;;3.50;1.43;;;26.20;55.20;;;;;;5130141;28;20451;-87
2021/06/19 01:01:45;;;;;;;3.93;1.10;;;26.00;54.90;;;;;;5120777;28;20432;-87
2021/06/19 01:04:12;;;;;;;4.17;2.00;;;25.90;55.40;;;;;;5119522;28;20453;-87
2021/06/19 01:06:40;;;;;;;1.67;1.03;;;25.80;55.80;;;;;;5129665;28;20431;-87
2021/06/19 01:09:08;;;;;;;2.07;1.00;;;25.70;55.80;;;;;;5134986;27;20488;-87
2021/06/19 01:11:36;;;;;;;3.47;1.43;;;25.60;55.90;;;;;;5134094;27;20453;-87
2021/06/19 01:14:04;;;;;;;1.20;1.10;;;25.30;56.30;;;;;;5130805;28;20446;-87
2021/06/19 01:16:31;;;;;;;1.40;1.30;;;25.20;56.80;;;;;;5115974;28;20435;-87
2021/06/19 01:18:59;;;;;;;3.63;1.27;;;25.10;57.00;;;;;;5115099;28;20481;-87
2021/06/19 01:21:30;;;;;;;2.13;1.00;;;25.10;57.00;;;;;;5115521;28;20824;-87
2021/06/19 01:23:57;;;;;;;1.83;1.20;;;25.00;57.20;;;;;;5115765;28;20478;-85
2021/06/19 01:26:26;;;;;;;3.23;1.43;;;25.00;57.60;;;;;;5117213;28;20473;-85
2021/06/19 01:28:55;;;;;;;2.93;1.13;;;25.00;57.70;;;;;;5116469;28;20955;-85
2021/06/19 01:31:22;;;;;;;3.03;1.20;;;25.00;58.00;;;;;;5118764;28;20940;-84
2021/06/19 01:33:50;;;;;;;1.37;1.03;;;25.10;57.40;;;;;;5117790;28;20455;-84
2021/06/19 01:36:18;;;;;;;2.10;1.00;;;25.10;57.60;;;;;;5117285;28;20458;-85
2021/06/19 01:38:47;;;;;;;1.20;1.10;;;25.20;57.70;;;;;;5117952;28;20482;-85
2021/06/19 01:41:15;;;;;;;1.23;1.17;;;25.40;57.60;;;;;;5115059;28;20412;-86
2021/06/19 01:43:45;;;;;;;2.10;0.90;;;25.50;57.20;;;;;;5114446;28;20435;-85
2021/06/19 01:46:13;;;;;;;3.20;1.30;;;25.60;56.90;;;;;;5114901;28;20450;-85
2021/06/19 01:48:40;;;;;;;1.83;1.50;;;25.60;57.00;;;;;;5116174;28;20446;-85
2021/06/19 01:51:08;;;;;;;2.33;1.43;;;25.60;56.80;;;;;;5114557;28;20526;-86
2021/06/19 01:53:35;;;;;;;1.63;1.30;;;25.60;56.80;;;;;;5114799;28;20438;-86
2021/06/19 01:56:01;;;;;;;1.90;0.90;;;25.60;56.90;;;;;;5114863;28;20447;-86
2021/06/19 01:58:30;;;;;;;3.23;1.10;;;25.60;56.70;;;;;;5114943;28;20478;-86
2021/06/19 02:00:58;;;;;;;1.20;1.10;;;25.70;56.70;;;;;;5114890;28;20469;-86
2021/06/19 02:03:25;;;;;;;3.60;1.30;;;25.80;56.70;;;;;;5114531;28;20451;-86
2021/06/19 02:05:51;;;;;;;2.60;1.20;;;25.80;56.30;;;;;;5115409;28;20435;-86
2021/06/19 02:08:21;;;;;;;1.20;1.07;;;25.70;55.80;;;;;;5114574;28;20457;-86
2021/06/19 02:10:48;;;;;;;2.00;1.47;;;25.50;56.40;;;;;;5114709;28;20509;-85
2021/06/19 02:13:15;;;;;;;1.90;0.90;;;25.30;56.80;;;;;;5115663;28;20449;-85
2021/06/19 02:15:46;;;;;;;1.03;1.03;;;25.10;57.30;;;;;;5114779;28;20449;-85
2021/06/19 02:18:16;;;;;;;1.30;1.20;;;24.90;58.10;;;;;;5114600;28;20824;-85
2021/06/19 02:20:44;;;;;;;3.23;1.33;;;24.70;58.60;;;;;;5114674;28;20463;-86
2021/06/19 02:23:13;;;;;;;2.00;1.13;;;24.60;59.60;;;;;;5114627;28;20439;-85
2021/06/19 02:25:39;;;;;;;1.10;1.00;;;24.60;59.50;;;;;;5114944;28;20454;-86
2021/06/19 02:28:08;;;;;;;1.60;1.23;;;24.70;59.60;;;;;;5117999;28;20454;-85
2021/06/19 02:30:37;;;;;;;5.10;1.63;;;24.70;59.50;;;;;;5122229;28;20470;-84
2021/06/19 02:33:05;;;;;;;2.10;1.30;;;24.70;59.60;;;;;;5123614;28;20453;-84
2021/06/19 02:35:36;;;;;;;2.17;1.60;;;24.70;59.00;;;;;;5122037;28;20809;-84
2021/06/19 02:38:03;;;;;;;8.43;1.77;;;24.70;59.30;;;;;;5123909;28;20473;-84
2021/06/19 02:40:30;;;;;;;3.20;1.10;;;24.70;59.10;;;;;;5123437;28;20470;-84
2021/06/19 02:42:57;;;;;;;1.57;1.47;;;24.80;59.40;;;;;;5123589;28;20476;-84
2021/06/19 02:45:25;;;;;;;2.47;1.27;;;24.70;59.50;;;;;;5123221;28;20437;-84
2021/06/19 02:47:53;;;;;;;2.30;1.43;;;24.80;59.50;;;;;;5123364;28;20439;-84
2021/06/19 02:50:22;;;;;;;3.07;1.30;;;24.80;59.50;;;;;;5124240;28;20462;-84
2021/06/19 02:52:51;;;;;;;4.60;1.40;;;24.70;59.20;;;;;;5124384;28;20435;-84
2021/06/19 02:55:21;;;;;;;3.40;1.30;;;24.70;59.40;;;;;;5120163;28;20450;-85
2021/06/19 02:57:48;;;;;;;1.70;1.17;;;24.70;59.50;;;;;;5119087;28;20445;-85
2021/06/19 03:00:16;;;;;;;2.97;1.30;;;24.70;59.60;;;;;;5118794;28;20465;-85
2021/06/19 03:02:43;;;;;;;1.77;1.23;;;24.70;59.30;;;;;;5118204;28;20453;-86
2021/06/19 03:05:13;;;;;;;1.40;1.20;;;24.70;59.30;;;;;;5118422;28;20439;-86
2021/06/19 03:07:39;;;;;;;1.60;1.03;;;24.70;59.60;;;;;;5118540;28;20435;-85
2021/06/19 03:10:10;;;;;;;2.10;1.27;;;24.70;59.60;;;;;;5118171;28;20467;-86
2021/06/19 03:12:37;;;;;;;1.50;1.40;;;24.70;59.50;;;;;;5119626;28;20794;-85
2021/06/19 03:15:05;;;;;;;3.43;1.83;;;24.80;59.40;;;;;;5120544;28;20439;-85
2021/06/19 03:17:32;;;;;;;2.43;1.27;;;24.80;60.10;;;;;;5118426;28;20453;-85
2021/06/19 03:19:59;;;;;;;1.83;1.30;;;24.80;59.50;;;;;;5117793;28;20481;-86
2021/06/19 03:22:26;;;;;;;4.10;1.27;;;24.80;59.40;;;;;;5118771;28;20428;-86
2021/06/19 03:24:53;;;;;;;4.60;1.30;;;24.80;59.60;;;;;;5117951;28;20808;-87
2021/06/19 03:27:21;;;;;;;1.70;1.60;;;24.80;59.40;;;;;;5117439;28;20431;-86
2021/06/19 03:29:47;;;;;;;2.73;1.67;;;24.80;59.70;;;;;;5117825;28;20446;-86
2021/06/19 03:32:14;;;;;;;2.03;1.40;;;24.70;59.80;;;;;;5117813;28;20447;-86
2021/06/19 03:34:41;;;;;;;1.53;1.30;;;24.70;59.80;;;;;;5123878;28;20427;-86
2021/06/19 03:37:08;;;;;;;5.50;1.33;;;24.70;59.80;;;;;;5118688;28;20447;-87
2021/06/19 03:39:36;;;;;;;3.97;1.90;;;24.70;59.60;;;;;;5116659;28;20491;-87
2021/06/19 03:42:06;;;;;;;5.60;1.70;;;24.70;59.90;;;;;;5117369;28;20427;-87
2021/06/19 03:44:34;;;;;;;2.20;1.13;;;24.60;59.80;;;;;;5117758;28;20560;-87
2021/06/19 03:47:01;;;;;;;3.10;1.47;;;24.60;59.90;;;;;;5117434;28;20472;-87
2021/06/19 03:49:28;;;;;;;2.03;1.17;;;24.60;60.10;;;;;;5117035;28;20563;-87
2021/06/19 03:51:55;;;;;;;1.90;1.40;;;24.50;59.80;;;;;;5117171;28;20431;-87
2021/06/19 03:54:21;;;;;;;3.00;1.80;;;24.50;60.10;;;;;;5117355;28;20450;-87
2021/06/19 03:56:48;;;;;;;3.37;1.20;;;24.50;60.10;;;;;;5116801;28;20431;-87
2021/06/19 03:59:15;;;;;;;4.00;1.33;;;24.50;59.90;;;;;;5116720;28;20497;-87
2021/06/19 04:01:43;;;;;;;8.00;1.67;;;24.50;60.10;;;;;;5116537;28;20431;-87
2021/06/19 04:04:10;;;;;;;1.63;1.20;;;24.50;60.00;;;;;;5116431;28;20471;-87
2021/06/19 04:06:37;;;;;;;2.80;1.40;;;24.50;59.90;;;;;;5116755;28;20458;-87
2021/06/19 04:09:05;;;;;;;1.47;1.37;;;24.50;60.00;;;;;;5116155;28;20498;-87
2021/06/19 04:11:32;;;;;;;2.93;1.53;;;24.50;59.90;;;;;;5116377;28;20825;-87
2021/06/19 04:13:58;;;;;;;5.60;1.53;;;24.50;59.90;;;;;;5116588;28;20435;-87
2021/06/19 04:16:25;;;;;;;3.77;1.70;;;24.50;60.30;;;;;;5116644;28;20443;-88
2021/06/19 04:18:53;;;;;;;8.80;1.60;;;24.40;60.10;;;;;;5116677;28;20478;-87
2021/06/19 04:21:20;;;;;;;8.50;1.87;;;24.40;60.40;;;;;;5115965;28;20951;-86
2021/06/19 04:23:46;;;;;;;6.27;1.60;;;24.40;61.00;;;;;;5116530;28;20454;-87
2021/06/19 04:26:13;;;;;;;4.20;2.50;;;24.30;60.50;;;;;;5116646;28;20797;-87
2021/06/19 04:28:40;;;;;;;4.70;1.40;;;24.30;60.80;;;;;;5116559;28;20447;-86
2021/06/19 04:31:07;;;;;;;4.80;1.63;;;24.30;61.10;;;;;;5116335;28;20968;-86
2021/06/19 04:33:34;;;;;;;3.43;1.50;;;24.30;61.20;;;;;;5116948;28;20427;-86
2021/06/19 04:36:02;;;;;;;4.20;1.53;;;24.30;60.90;;;;;;5116949;28;20428;-86
2021/06/19 04:38:29;;;;;;;9.20;1.63;;;24.30;61.00;;;;;;5116744;28;20536;-86
2021/06/19 04:40:58;;;;;;;5.00;1.70;;;24.20;61.30;;;;;;5116770;28;20473;-86
2021/06/19 04:43:29;;;;;;;6.37;1.43;;;24.20;62.10;;;;;;5116219;28;20845;-86
2021/06/19 04:45:56;;;;;;;5.80;1.40;;;24.10;62.40;;;;;;5116688;28;20438;-86
2021/06/19 04:48:23;;;;;;;14.77;2.30;;;23.90;63.20;;;;;;5116384;28;20450;-87
2021/06/19 04:50:52;;;;;;;8.90;1.60;;;23.90;64.00;;;;;;5115911;28;20459;-85
2021/06/19 04:53:22;;;;;;;5.43;1.60;;;23.90;64.30;;;;;;5116004;28;20811;-86
2021/06/19 04:55:49;;;;;;;4.50;2.00;;;23.90;64.40;;;;;;5116110;28;20450;-86
2021/06/19 04:58:16;;;;;;;7.37;2.10;;;23.90;64.90;;;;;;5115632;28;20928;-86
2021/06/19 05:00:43;;;;;;;3.43;1.10;;;23.90;65.20;;;;;;5116537;28;20466;-85
2021/06/19 05:03:11;;;;;;;6.73;1.77;;;24.00;64.80;;;;;;5117211;28;20450;-86
2021/06/19 05:05:38;;;;;;;7.77;1.40;;;24.00;65.00;;;;;;5116204;28;20447;-86
2021/06/19 05:08:06;;;;;;;3.50;1.30;;;24.10;64.70;;;;;;5116382;28;20455;-85
2021/06/19 05:10:34;;;;;;;2.50;1.43;;;24.10;64.70;;;;;;5116053;28;20874;-87
2021/06/19 05:13:01;;;;;;;2.10;1.60;;;24.00;64.30;;;;;;5115707;28;20434;-86
2021/06/19 05:15:28;;;;;;;7.50;1.70;;;24.00;64.70;;;;;;5115611;28;20533;-86
2021/06/19 05:17:55;;;;;;;2.60;1.33;;;24.00;64.80;;;;;;5115159;28;20431;-86
2021/06/19 05:20:22;;;;;;;3.33;1.50;;;23.90;64.60;;;;;;5116123;28;20482;-85
2021/06/19 05:22:49;;;;;;;5.50;1.37;;;23.90;64.80;;;;;;5117578;28;20965;-85
2021/06/19 05:25:16;;;;;;;5.50;1.57;;;23.90;65.50;;;;;;5118246;28;20845;-85
2021/06/19 05:27:45;;;;;;;5.47;1.83;;;23.80;65.50;;;;;;5117553;28;20454;-84
2021/06/19 05:30:13;;;;;;;4.63;1.47;;;23.80;65.70;;;;;;5120624;28;20463;-84
2021/06/19 05:32:40;;;;;;;2.40;1.33;;;23.70;65.70;;;;;;5120161;28;20454;-84
2021/06/19 05:35:08;;;;;;;5.77;2.33;;;23.60;66.10;;;;;;5119610;28;20901;-84
2021/06/19 05:37:35;;;;;;;3.77;1.77;;;23.50;66.00;;;;;;5120326;28;20446;-84
2021/06/19 05:40:01;;;;;;;1.80;1.40;;;23.40;67.20;;;;;;5119526;28;20506;-84
2021/06/19 05:42:28;;;;;;;5.20;1.37;;;23.40;67.30;;;;;;5120021;28;20458;-84
2021/06/19 05:44:56;;;;;;;4.00;1.40;;;23.40;67.30;;;;;;5119022;28;20449;-84
2021/06/19 05:47:23;;;;;;;3.60;1.53;;;23.30;67.80;;;;;;5118293;28;20466;-84
2021/06/19 05:49:50;;;;;;;1.70;1.60;;;23.40;68.60;;;;;;5117803;28;20481;-85
2021/06/19 05:52:18;;;;;;;3.73;2.23;;;23.30;67.80;;;;;;5117738;28;20419;-85
2021/06/19 05:54:45;;;;;;;2.43;1.90;;;23.40;68.30;;;;;;5118150;28;20500;-84
2021/06/19 05:57:12;;;;;;;2.30;2.10;;;23.50;67.70;;;;;;5117457;28;20920;-84
2021/06/19 05:59:39;;;;;;;5.90;1.60;;;23.70;68.60;;;;;;5117453;28;20478;-85
2021/06/19 06:02:07;;;;;;;4.83;1.83;;;23.80;67.70;;;;;;5117329;28;20454;-84
2021/06/19 06:04:34;;;;;;;2.40;1.70;;;23.80;67.10;;;;;;5117903;28;20450;-85
2021/06/19 06:07:07;;;;;;;5.30;1.80;;;23.80;66.30;;;;;;5117239;28;20450;-85
2021/06/19 06:10:13;;;;;;;5.60;1.87;;;23.90;66.60;;;;;;5117245;28;20478;-85
2021/06/19 06:12:41;;;;;;;2.93;1.97;;;23.80;66.50;;;;;;5117375;28;20488;-84
2021/06/19 06:15:09;;;;;;;3.40;2.07;;;23.80;66.80;;;;;;5117173;28;20432;-84
2021/06/19 06:17:38;;;;;;;5.30;1.77;;;23.80;66.00;;;;;;5117181;28;20873;-84
2021/06/19 06:20:06;;;;;;;1.93;1.70;;;23.80;66.50;;;;;;5117208;28;20494;-85
2021/06/19 06:22:33;;;;;;;3.27;1.70;;;23.80;66.10;;;;;;5116173;28;20442;-85
2021/06/19 06:25:00;;;;;;;3.53;1.97;;;23.90;65.50;;;;;;5115510;28;20454;-85
2021/06/19 06:27:27;;;;;;;1.60;1.50;;;23.80;65.20;;;;;;5114607;28;20450;-85
2021/06/19 06:29:54;;;;;;;3.70;1.40;;;23.80;66.20;;;;;;5128647;28;20458;-85
2021/06/19 06:32:20;;;;;;;1.20;1.10;;;23.70;66.00;;;;;;5133290;28;20423;-85
2021/06/19 06:34:48;;;;;;;3.37;2.00;;;23.80;67.30;;;;;;5136668;28;20510;-84
2021/06/19 06:37:15;;;;;;;3.77;1.80;;;23.90;66.50;;;;;;5137835;28;20495;-86
2021/06/19 06:39:42;;;;;;;2.43;1.57;;;24.10;67.10;;;;;;5126652;28;20487;-86
2021/06/19 06:42:11;;;;;;;2.30;1.30;;;24.20;65.20;;;;;;5114549;28;20451;-86
2021/06/19 06:44:37;;;;;;;2.63;1.93;;;24.30;65.00;;;;;;5127813;28;20492;-86
2021/06/19 06:47:05;;;;;;;1.73;1.10;;;24.50;65.00;;;;;;5135053;28;20431;-84
2021/06/19 06:49:32;;;;;;;4.70;1.50;;;24.60;65.10;;;;;;5133452;28;20450;-85
2021/06/19 06:52:00;;;;;;;1.67;1.20;;;24.70;62.90;;;;;;5131583;28;20433;-84
2021/06/19 06:54:28;;;;;;;1.97;1.70;;;24.70;63.90;;;;;;5120386;28;20434;-85
2021/06/19 06:56:55;;;;;;;2.17;1.50;;;24.90;63.50;;;;;;5118283;28;20435;-84
2021/06/19 06:59:22;;;;;;;2.60;1.70;;;25.00;62.70;;;;;;5116962;28;20991;-85
2021/06/19 07:01:49;;;;;;;6.97;1.70;;;25.10;61.60;;;;;;5116883;28;20803;-85
2021/06/19 07:04:16;;;;;;;4.80;1.60;;;25.20;61.50;;;;;;5117718;28;20457;-84
2021/06/19 07:06:43;;;;;;;3.17;1.17;;;25.40;60.20;;;;;;5114363;28;20440;-85
2021/06/19 07:09:11;;;;;;;2.37;1.50;;;25.60;59.80;;;;;;5113842;28;20471;-86
2021/06/19 07:11:38;;;;;;;4.80;1.10;;;25.90;59.10;;;;;;5114399;28;20477;-85
2021/06/19 07:14:04;;;;;;;2.17;1.70;;;26.20;58.40;;;;;;5118574;28;20909;-85
2021/06/19 07:16:31;;;;;;;4.07;1.13;;;26.40;57.30;;;;;;5118742;28;20554;-86
2021/06/19 07:18:59;;;;;;;1.70;1.30;;;26.60;56.70;;;;;;5119561;28;20438;-84
2021/06/19 07:21:26;;;;;;;3.70;1.30;;;26.80;56.70;;;;;;5120826;28;20459;-86
2021/06/19 07:23:53;;;;;;;2.20;1.20;;;27.00;56.50;;;;;;5118425;28;20434;-85
2021/06/19 07:26:21;;;;;;;1.97;1.20;;;27.30;55.60;;;;;;5118357;28;20881;-87
2021/06/19 07:28:48;;;;;;;6.30;1.83;;;27.30;55.40;;;;;;5117450;28;20978;-87
2021/06/19 07:31:15;;;;;;;2.30;2.10;;;27.30;54.70;;;;;;5117532;28;20447;-87
2021/06/19 07:33:42;;;;;;;2.80;1.23;;;27.20;54.70;;;;;;5117459;28;20940;-87
2021/06/19 07:36:09;;;;;;;2.90;1.23;;;27.30;55.00;;;;;;5117463;28;20443;-87
2021/06/19 07:38:36;;;;;;;3.23;1.17;;;27.40;54.90;;;;;;5117207;28;20442;-87
2021/06/19 07:41:03;;;;;;;2.30;1.23;;;27.50;54.00;;;;;;5117067;28;20479;-88
2021/06/19 07:43:31;;;;;;;1.90;1.17;;;27.50;53.90;;;;;;5117126;28;20450;-90
2021/06/19 07:46:00;;;;;;;2.20;1.17;;;27.40;54.80;;;;;;5117182;28;20457;-89
2021/06/19 07:48:27;;;;;;;1.90;1.00;;;27.70;54.20;;;;;;5117805;28;20532;-83
2021/06/19 07:50:54;;;;;;;1.53;0.90;;;27.80;53.60;;;;;;5118670;28;20467;-83
2021/06/19 07:53:21;;;;;;;3.60;0.90;;;28.10;53.20;;;;;;5118646;28;20791;-82
2021/06/19 07:55:48;;;;;;;1.27;1.17;;;28.40;52.20;;;;;;5119404;28;20451;-83
2021/06/19 07:58:15;;;;;;;2.60;1.07;;;28.70;49.90;;;;;;5119252;28;20453;-83
2021/06/19 08:00:43;;;;;;;1.33;1.10;;;28.90;50.40;;;;;;5120267;28;20479;-84
2021/06/19 08:03:10;;;;;;;1.10;0.80;;;29.10;50.50;;;;;;5119725;28;20450;-82
2021/06/19 08:05:37;;;;;;;3.23;1.20;;;29.10;49.60;;;;;;5118818;28;20961;-84
2021/06/19 08:08:04;;;;;;;2.90;1.13;;;29.20;49.70;;;;;;5118712;28;20454;-83
2021/06/19 08:10:30;;;;;;;2.60;1.23;;;29.30;49.10;;;;;;5119493;28;20470;-84
2021/06/19 08:12:57;;;;;;;5.40;2.10;;;29.40;49.10;;;;;;5119681;28;20439;-84
2021/06/19 08:15:24;;;;;;;6.53;1.30;;;29.50;48.20;;;;;;5119334;28;20431;-84
2021/06/19 08:17:52;;;;;;;2.03;1.17;;;29.60;48.30;;;;;;5119792;28;20478;-84
2021/06/19 08:20:19;;;;;;;3.27;1.47;;;29.80;48.30;;;;;;5119490;28;20486;-84
2021/06/19 08:22:47;;;;;;;3.40;1.20;;;30.00;47.90;;;;;;5119485;28;20442;-84
2021/06/19 08:25:14;;;;;;;4.87;1.23;;;30.10;46.70;;;;;;5118369;28;20937;-85
2021/06/19 08:27:41;;;;;;;3.37;1.43;;;30.20;47.40;;;;;;5118523;28;20458;-86
2021/06/19 08:30:09;;;;;;;2.40;1.20;;;30.40;46.40;;;;;;5119811;28;20478;-84
2021/06/19 08:32:36;;;;;;;4.57;1.40;;;30.60;45.20;;;;;;5119313;28;20955;-85
2021/06/19 08:35:06;;;;;;;1.80;1.13;;;30.70;45.60;;;;;;5118999;28;20442;-85
2021/06/19 08:37:32;;;;;;;1.97;0.90;;;30.80;45.20;;;;;;5120682;28;20435;-85
2021/06/19 08:39:59;;;;;;;2.30;1.20;;;30.90;45.20;;;;;;5121281;28;20478;-84
2021/06/19 08:42:26;;;;;;;1.60;1.30;;;31.10;44.70;;;;;;5120840;28;20936;-83
2021/06/19 08:44:57;;;;;;;3.83;1.40;;;31.20;44.40;;;;;;5120955;28;20439;-83
2021/06/19 08:47:25;;;;;;;4.87;1.20;;;31.30;44.30;;;;;;5120715;28;20449;-85
2021/06/19 08:49:53;;;;;;;3.10;1.23;;;31.50;44.80;;;;;;5119399;28;20462;-83
2021/06/19 08:52:22;;;;;;;4.10;1.53;;;31.60;43.90;;;;;;5120487;28;20438;-82
2021/06/19 08:54:49;;;;;;;1.13;1.00;;;31.80;43.90;;;;;;5120960;28;20447;-81
2021/06/19 08:57:16;;;;;;;2.60;1.00;;;31.80;41.50;;;;;;5120825;28;20451;-81
2021/06/19 08:59:48;;;;;;;2.90;1.50;;;31.60;42.20;;;;;;5120532;28;20450;-82
2021/06/19 09:02:15;;;;;;;2.10;0.77;;;31.60;43.10;;;;;;5121124;28;20190;-81
2021/06/19 09:05:04;;;;;;;1.57;0.90;;;31.50;43.50;;;;;;5122082;28;20806;-81
2021/06/19 09:07:45;;;;;;;2.93;1.10;;;31.70;42.70;;;;;;5117336;28;20960;-80
2021/06/19 09:10:33;;;;;;;2.27;1.20;;;31.90;42.60;;;;;;5118283;28;20954;-80
2021/06/19 09:13:03;;;;;;;2.20;1.00;;;32.10;41.80;;;;;;5117896;28;20430;-80
2021/06/19 09:15:32;;;;;;;4.83;1.17;;;32.20;42.30;;;;;;5118672;28;20430;-80
2021/06/19 09:18:18;;;;;;;3.73;1.07;;;32.30;41.50;;;;;;5118756;28;20454;-81
2021/06/19 09:20:52;;;;;;;4.70;1.20;;;32.30;41.20;;;;;;5119884;28;20585;-81
2021/06/19 09:23:28;;;;;;;2.30;1.20;;;32.40;41.70;;;;;;5120398;28;20529;-81
2021/06/19 09:26:13;;;;;;;1.13;1.00;;;32.60;41.10;;;;;;5119756;28;20915;-81
2021/06/19 09:29:11;;;;;;;1.13;1.03;;;32.70;40.80;;;;;;5120716;28;20422;-81
2021/06/19 09:31:41;;;;;;;6.67;1.40;;;32.60;40.90;;;;;;5038900;28;20426;-81
2021/06/19 09:34:13;;;;;;;1.90;1.20;;;32.80;40.90;;;;;;5100350;28;20797;-81
2021/06/19 09:36:45;;;;;;;5.50;1.67;;;33.10;39.70;;;;;;5115618;28;20422;-83
2021/06/19 09:39:15;;;;;;;14.03;1.97;;;33.30;39.90;;;;;;5115045;28;20454;-83
2021/06/19 09:41:43;;;;;;;9.10;2.27;;;33.50;39.50;;;;;;5115209;28;20469;-83
2021/06/19 09:44:10;;;;;;;9.13;2.57;;;33.60;39.20;;;;;;5115727;28;20430;-83
2021/06/19 09:46:37;;;;;;;4.03;1.57;;;33.90;39.50;;;;;;5116127;28;20445;-83
2021/06/19 09:49:12;;;;;;;1.77;1.47;;;34.10;38.40;;;;;;5116867;28;20446;-83
2021/06/19 09:51:45;;;;;;;5.53;1.63;;;34.40;37.50;;;;;;5114693;28;20437;-83
2021/06/19 09:54:14;;;;;;;1.93;1.70;;;34.70;37.70;;;;;;5115921;28;20793;-82
2021/06/19 09:56:50;;;;;;;2.80;1.40;;;35.00;36.90;;;;;;5115367;28;20427;-83
2021/06/19 09:59:24;;;;;;;1.43;1.33;;;35.20;36.40;;;;;;5114597;28;20470;-84
2021/06/19 10:01:51;;;;;;;1.93;1.40;;;35.50;36.40;;;;;;5114870;28;20466;-83
2021/06/19 10:04:20;;;;;;;3.27;1.50;;;35.90;35.40;;;;;;5114675;28;20454;-84
2021/06/19 10:06:48;;;;;;;1.20;1.10;;;36.10;34.90;;;;;;5114503;28;20446;-84
2021/06/19 10:09:16;;;;;;;1.70;1.30;;;36.30;34.40;;;;;;5114160;28;20484;-84
2021/06/19 10:11:44;;;;;;;2.17;1.00;;;36.50;34.00;;;;;;5114562;28;20549;-84
2021/06/19 10:14:17;;;;;;;4.20;1.50;;;36.50;33.30;;;;;;5114656;28;20487;-83
2021/06/19 10:16:44;;;;;;;3.70;1.67;;;36.60;33.10;;;;;;5115384;28;20936;-84
2021/06/19 10:19:12;;;;;;;5.00;2.03;;;36.60;33.00;;;;;;5116605;28;20466;-82
2021/06/19 10:21:39;;;;;;;3.20;1.53;;;36.90;33.00;;;;;;5117769;28;20466;-81
2021/06/19 10:24:07;;;;;;;4.10;1.47;;;37.40;32.20;;;;;;5118318;28;20541;-81
2021/06/19 10:26:37;;;;;;;4.73;1.43;;;37.60;31.10;;;;;;5117801;28;20519;-81
2021/06/19 10:29:05;;;;;;;5.53;1.90;;;38.10;31.00;;;;;;5118414;28;20185;-81
2021/06/19 10:31:41;;;;;;;1.70;1.60;;;38.40;30.70;;;;;;5118714;28;20204;-81
2021/06/19 10:34:24;;;;;;;4.60;1.60;;;38.50;30.00;;;;;;5119230;28;20297;-81
2021/06/19 10:36:51;;;;;;;2.30;1.50;;;38.60;29.90;;;;;;5118580;28;20180;-80
2021/06/19 10:39:33;;;;;;;1.80;1.20;;;39.00;29.80;;;;;;5118175;28;20708;-80
2021/06/19 10:42:02;;;;;;;2.28;1.58;;;39.40;29.40;;;;;;5116264;28;20210;-81
2021/06/19 10:44:58;;;;;;;4.28;1.58;;;40.00;28.90;;;;;;5115200;28;20213;-84
2021/06/19 10:47:27;;;;;;;2.03;1.35;;;40.60;27.80;;;;;;5068410;28;20546;-85
2021/06/19 10:49:54;;;;;;;1.25;1.15;;;41.10;27.70;;;;;;5117953;28;20223;-85
2021/06/19 10:52:24;;;;;;;7.60;1.70;;;41.60;27.00;;;;;;5118079;28;20200;-85
2021/06/19 10:55:19;;;;;;;3.55;1.60;;;42.10;25.80;;;;;;5117745;28;20693;-85
2021/06/19 10:57:49;;;;;;;2.17;1.30;;;42.50;26.10;;;;;;5118407;28;20196;-86
2021/06/19 11:00:27;;;;;;;2.20;1.30;;;42.70;25.10;;;;;;5118839;28;20217;-85
2021/06/19 11:02:56;;;;;;;1.83;1.20;;;42.10;25.20;;;;;;5117929;28;20189;-85
2021/06/19 11:05:58;;;;;;;2.83;1.58;;;42.30;25.20;;;;;;5117837;28;20218;-85
2021/06/19 11:08:26;;;;;;;2.35;1.40;;;42.60;24.70;;;;;;5117964;28;20290;-85
2021/06/19 11:10:58;;;;;;;1.52;1.20;;;42.70;24.80;;;;;;5118185;28;20258;-84
2021/06/19 11:13:45;;;;;;;1.65;1.52;;;42.70;25.00;;;;;;5118101;28;20204;-85
2021/06/19 11:16:52;;;;;;;3.00;1.90;;;43.10;24.70;;;;;;5118042;28;20197;-85
2021/06/19 11:19:40;;;;;;;4.25;1.42;;;43.50;24.10;;;;;;5117848;28;20224;-84
2021/06/19 11:22:26;;;;;;;2.28;1.30;;;43.80;23.70;;;;;;5118734;28;20205;-82
2021/06/19 11:25:17;;;;;;;2.22;1.25;;;44.30;23.20;;;;;;5123573;28;20200;-82
2021/06/19 11:27:52;;;;;;;2.95;1.45;;;44.50;23.00;;;;;;5125832;28;20210;-81
2021/06/19 11:30:50;;;;;;;2.75;1.30;;;44.50;23.00;;;;;;5122808;28;20220;-82
2021/06/19 11:33:55;;;;;;;2.78;1.30;;;44.20;23.00;;;;;;5122052;28;20192;-82
2021/06/19 11:36:32;;;;;;;4.22;1.50;;;44.00;23.50;;;;;;5121255;28;20638;-85
2021/06/19 11:39:04;;;;;;;1.52;1.40;;;43.70;23.30;;;;;;5117191;28;20576;-85
2021/06/19 11:41:34;;;;;;;2.03;1.50;;;43.30;24.10;;;;;;5118632;28;20273;-82
2021/06/19 11:44:02;;;;;;;3.83;1.33;;;42.80;24.60;;;;;;5119447;28;20214;-86
2021/06/19 11:46:30;;;;;;;2.03;1.40;;;42.90;24.20;;;;;;5117432;28;20210;-87
2021/06/19 11:49:02;;;;;;;2.78;1.48;;;43.30;23.70;;;;;;5117351;28;20211;-86
2021/06/19 11:51:31;;;;;;;2.72;1.65;;;43.50;23.70;;;;;;5118034;28;20615;-86
2021/06/19 11:54:00;;;;;;;3.97;1.45;;;43.40;24.10;;;;;;5117147;28;20197;-86
2021/06/19 11:56:28;;;;;;;1.75;1.27;;;43.50;24.10;;;;;;5117254;28;20231;-86
2021/06/19 11:58:56;;;;;;;4.07;1.58;;;43.80;23.40;;;;;;5116221;28;20188;-85
2021/06/19 12:01:24;;;;;;;1.77;1.33;;;44.20;23.70;;;;;;5122258;28;20217;-83
2021/06/19 12:03:53;;;;;;;4.20;1.42;;;44.80;23.00;;;;;;5126438;28;20565;-83
2021/06/19 12:06:30;;;;;;;3.88;1.30;;;45.40;22.20;;;;;;5126670;28;20208;-83
2021/06/19 12:09:30;;;;;;;2.58;1.15;;;45.80;21.90;;;;;;5125880;28;20223;-84
2021/06/19 12:11:59;;;;;;;2.88;1.35;;;45.70;22.10;;;;;;5116710;28;20365;-85
2021/06/19 12:14:28;;;;;;;1.58;1.30;;;45.10;22.80;;;;;;5116321;28;20200;-85
2021/06/19 12:16:56;;;;;;;1.85;1.20;;;44.60;23.10;;;;;;5116586;28;20207;-87
2021/06/19 12:19:27;;;;;;;5.45;1.70;;;44.70;23.10;;;;;;5117200;28;20702;-86
2021/06/19 12:21:58;;;;;;;2.63;1.13;;;44.50;22.70;;;;;;5120596;28;20209;-86
2021/06/19 12:24:29;;;;;;;3.83;1.83;;;44.40;23.20;;;;;;5120163;28;20188;-86
2021/06/19 12:27:06;;;;;;;2.53;1.45;;;44.30;23.40;;;;;;5126316;28;20189;-85
2021/06/19 12:29:35;;;;;;;2.50;1.67;;;43.90;23.80;;;;;;5128121;28;20252;-83
2021/06/19 12:32:17;;;;;;;3.72;1.50;;;43.30;24.20;;;;;;5123725;28;20180;-83
2021/06/19 12:34:45;;;;;;;2.25;1.70;;;42.80;24.50;;;;;;5122470;28;20196;-83
2021/06/19 12:37:12;;;;;;;3.35;1.45;;;42.60;24.80;;;;;;5124613;28;20203;-83
2021/06/19 12:39:40;;;;;;;3.42;1.48;;;42.50;24.80;;;;;;5123961;28;20224;-83
2021/06/19 12:42:08;;;;;;;2.65;1.30;;;42.60;25.20;;;;;;5125005;28;20204;-83
2021/06/19 12:44:35;;;;;;;3.45;1.67;;;42.90;24.90;;;;;;5122208;28;20288;-83
2021/06/19 12:47:15;;;;;;;4.72;1.25;;;43.60;24.20;;;;;;5117884;28;20181;-83
2021/06/19 12:49:54;;;;;;;2.33;1.10;;;44.50;23.10;;;;;;5116941;28;20588;-83
2021/06/19 12:52:21;;;;;;;4.30;1.65;;;45.30;22.30;;;;;;5117516;28;20181;-83
2021/06/19 12:54:48;;;;;;;2.42;1.40;;;45.70;22.10;;;;;;5116601;28;20205;-83
2021/06/19 12:57:18;;;;;;;3.13;1.63;;;45.80;21.70;;;;;;5116725;28;20696;-83